Time;durP1;ratioP1;P1;durP2;ratioP2;P2;SDS_P1;SDS_P2;PMS_P1;PMS_P2;Temp;Humidity;BMP_temperature;BMP_pressure;BME280_temperature;BME280_humidity;BME280_pressure;Samples;Min_cycle;Max_cycle;Signal;HPM_P1;HPM_P2
2022/05/17 00:01:00;;;;;;;1.50;1.50;;;22.20;70.90;;;;;;5047897;28;43890;-71
2022/05/17 00:03:30;;;;;;;1.50;1.50;;;22.20;70.10;;;;;;5047972;28;44059;-70
2022/05/17 00:05:58;;;;;;;1.50;1.50;;;22.20;70.30;;;;;;5048292;28;44030;-69
2022/05/17 00:08:26;;;;;;;1.40;1.40;;;22.20;70.30;;;;;;5047929;28;43843;-69
2022/05/17 00:10:54;;;;;;;1.50;1.50;;;22.10;69.80;;;;;;5047724;28;43921;-70
2022/05/17 00:13:22;;;;;;;1.30;1.30;;;22.00;69.30;;;;;;5048153;28;44399;-70
2022/05/17 00:15:51;;;;;;;1.60;1.60;;;21.90;69.30;;;;;;5048027;28;44022;-70
2022/05/17 00:18:19;;;;;;;1.40;1.40;;;21.90;70.20;;;;;;5047486;28;45149;-69
2022/05/17 00:20:49;;;;;;;1.53;1.53;;;21.80;71.90;;;;;;5047968;28;43962;-70
2022/05/17 00:23:17;;;;;;;1.40;1.40;;;21.90;71.90;;;;;;5047678;28;44001;-71
2022/05/17 00:25:47;;;;;;;1.60;1.60;;;22.00;71.30;;;;;;5047738;28;44122;-70
2022/05/17 00:28:15;;;;;;;1.50;1.50;;;22.00;71.20;;;;;;5047563;28;43942;-71
2022/05/17 00:30:43;;;;;;;1.43;1.43;;;22.00;71.00;;;;;;5029380;28;44852;-70
2022/05/17 00:33:11;;;;;;;1.50;1.50;;;21.90;69.90;;;;;;5047442;28;44027;-70
2022/05/17 00:35:43;;;;;;;1.50;1.50;;;21.80;69.50;;;;;;5047480;28;44207;-70
2022/05/17 00:38:13;;;;;;;1.50;1.50;;;21.80;69.80;;;;;;5047275;28;43972;-71
2022/05/17 00:40:41;;;;;;;1.53;1.53;;;21.70;69.80;;;;;;5047329;28;44008;-70
2022/05/17 00:43:09;;;;;;;1.43;1.43;;;21.70;70.00;;;;;;5045485;28;43910;-69
2022/05/17 00:45:37;;;;;;;1.40;1.40;;;21.60;69.90;;;;;;5047865;28;44032;-70
2022/05/17 00:48:05;;;;;;;1.87;1.70;;;21.60;72.50;;;;;;5047358;28;44542;-70
2022/05/17 00:50:36;;;;;;;1.60;1.60;;;21.70;72.40;;;;;;5047062;28;43978;-69
2022/05/17 00:53:06;;;;;;;1.60;1.60;;;21.90;71.90;;;;;;5047752;28;44051;-69
2022/05/17 00:55:37;;;;;;;1.60;1.60;;;22.00;71.30;;;;;;5047781;28;44016;-69
2022/05/17 00:58:09;;;;;;;1.50;1.50;;;22.10;70.60;;;;;;5047165;28;45308;-70
2022/05/17 01:00:39;;;;;;;1.57;1.57;;;22.20;70.60;;;;;;5047091;28;43988;-70
2022/05/17 01:03:08;;;;;;;1.67;1.67;;;22.10;70.40;;;;;;5047126;28;43941;-70
2022/05/17 01:05:38;;;;;;;1.60;1.60;;;22.00;69.70;;;;;;5047554;28;44029;-70
2022/05/17 01:08:07;;;;;;;1.60;1.60;;;21.90;69.40;;;;;;5047060;28;43722;-70
2022/05/17 01:10:37;;;;;;;1.43;1.43;;;21.80;69.40;;;;;;5046937;28;43919;-71
2022/05/17 01:15:50;;;;;;;1.70;1.70;;;21.70;71.30;;;;;;5047330;28;43442;-69
2022/05/17 01:18:18;;;;;;;1.60;1.60;;;21.70;72.50;;;;;;5046417;28;43909;-69
2022/05/17 01:20:46;;;;;;;1.70;1.60;;;21.90;71.90;;;;;;5046479;28;44109;-71
2022/05/17 01:23:16;;;;;;;1.50;1.50;;;21.90;71.10;;;;;;5047013;28;43953;-70
2022/05/17 01:25:44;;;;;;;1.67;1.67;;;21.90;71.20;;;;;;5047004;28;44008;-70
2022/05/17 01:28:14;;;;;;;1.30;1.30;;;21.90;70.50;;;;;;5045824;28;43894;-69
2022/05/17 01:30:42;;;;;;;1.50;1.50;;;21.80;69.70;;;;;;5044819;28;44847;-70
2022/05/17 01:33:13;;;;;;;1.40;1.40;;;21.80;69.70;;;;;;5046599;28;43960;-70
2022/05/17 01:35:41;;;;;;;1.57;1.57;;;21.70;69.80;;;;;;5046977;28;44006;-69
2022/05/17 01:38:09;;;;;;;1.43;1.43;;;21.60;69.90;;;;;;5046551;28;44042;-70
2022/05/17 01:40:39;;;;;;;1.53;1.53;;;21.60;69.90;;;;;;5046456;28;44045;-70
2022/05/17 01:43:07;;;;;;;1.50;1.50;;;21.60;70.40;;;;;;5046089;28;43925;-69
2022/05/17 01:45:35;;;;;;;1.60;1.60;;;21.60;72.30;;;;;;5045451;28;44150;-69
2022/05/17 01:48:03;;;;;;;1.67;1.67;;;21.70;72.80;;;;;;5046226;28;45061;-70
2022/05/17 01:50:31;;;;;;;1.70;1.70;;;21.90;72.20;;;;;;5046376;28;43941;-70
2022/05/17 01:52:59;;;;;;;1.77;1.77;;;22.10;71.30;;;;;;5046395;28;43907;-70
2022/05/17 01:55:27;;;;;;;1.60;1.60;;;22.20;70.50;;;;;;5046962;28;43943;-71
2022/05/17 01:57:56;;;;;;;1.80;1.80;;;22.20;70.50;;;;;;5046335;28;43735;-70
2022/05/17 02:00:24;;;;;;;1.60;1.60;;;22.20;70.50;;;;;;5046110;28;43989;-69
2022/05/17 02:02:52;;;;;;;1.80;1.80;;;22.10;70.30;;;;;;5046099;28;43869;-70
2022/05/17 02:05:21;;;;;;;1.60;1.60;;;22.00;69.30;;;;;;5046432;28;43961;-71
2022/05/17 02:07:50;;;;;;;1.50;1.50;;;21.90;69.30;;;;;;5039471;28;43855;-70
2022/05/17 02:10:18;;;;;;;1.70;1.70;;;21.80;69.50;;;;;;5039345;28;44083;-70
2022/05/17 02:12:46;;;;;;;1.70;1.70;;;21.70;71.30;;;;;;5046180;28;43941;-70
2022/05/17 02:15:15;;;;;;;1.50;1.50;;;21.70;72.10;;;;;;5040060;28;43934;-70
2022/05/17 02:17:44;;;;;;;1.60;1.60;;;21.80;71.70;;;;;;5021585;28;44164;-70
2022/05/17 02:20:12;;;;;;;1.60;1.60;;;21.90;71.30;;;;;;5045933;28;44056;-70
2022/05/17 02:22:40;;;;;;;1.43;1.43;;;21.90;71.20;;;;;;5046189;28;44002;-70
2022/05/17 02:25:09;;;;;;;1.70;1.70;;;21.90;70.60;;;;;;5046587;28;44024;-70
2022/05/17 02:27:37;;;;;;;1.70;1.70;;;21.80;69.70;;;;;;5046058;28;43957;-70
2022/05/17 02:30:07;;;;;;;1.60;1.60;;;21.70;69.60;;;;;;5044056;28;46272;-70
2022/05/17 02:32:36;;;;;;;1.80;1.80;;;21.70;69.80;;;;;;5045949;28;43901;-69
2022/05/17 02:35:04;;;;;;;1.70;1.70;;;21.60;69.90;;;;;;5046074;28;44036;-70
2022/05/17 02:37:32;;;;;;;1.60;1.60;;;21.60;69.90;;;;;;5045800;28;44000;-70
2022/05/17 02:40:00;;;;;;;1.73;1.73;;;21.50;70.00;;;;;;5048512;28;43854;-70
2022/05/17 02:42:28;;;;;;;1.80;1.80;;;21.50;72.00;;;;;;5049109;28;43470;-69
2022/05/17 02:44:56;;;;;;;1.80;1.80;;;21.60;72.50;;;;;;5049390;28;43942;-70
2022/05/17 02:47:24;;;;;;;1.70;1.70;;;21.80;72.00;;;;;;5049540;28;44690;-70
2022/05/17 02:49:54;;;;;;;1.60;1.60;;;22.00;71.50;;;;;;5049032;28;43775;-71
2022/05/17 02:52:22;;;;;;;1.97;1.97;;;22.10;70.40;;;;;;5049140;28;43914;-70
2022/05/17 02:54:50;;;;;;;1.93;1.93;;;22.20;70.20;;;;;;5049738;28;43976;-70
2022/05/17 02:57:18;;;;;;;1.63;1.63;;;22.10;70.30;;;;;;5049105;28;43860;-70
2022/05/17 02:59:46;;;;;;;1.70;1.70;;;22.10;70.40;;;;;;5048611;28;43875;-70
2022/05/17 03:02:14;;;;;;;1.60;1.60;;;22.00;69.30;;;;;;5048989;28;43944;-69
2022/05/17 03:04:42;;;;;;;1.70;1.70;;;21.80;69.10;;;;;;5049393;28;43476;-70
2022/05/17 03:07:11;;;;;;;1.70;1.70;;;21.80;69.40;;;;;;5048919;28;43893;-68
2022/05/17 03:09:39;;;;;;;1.70;1.70;;;21.70;70.80;;;;;;5048791;28;44084;-70
2022/05/17 03:12:08;;;;;;;1.67;1.67;;;21.70;71.80;;;;;;5049034;28;43408;-71
2022/05/17 03:14:36;;;;;;;1.77;1.77;;;21.80;72.10;;;;;;5049315;28;43918;-70
2022/05/17 03:17:10;;;;;;;1.73;1.73;;;21.90;71.80;;;;;;5048713;28;44873;-70
2022/05/17 03:19:38;;;;;;;1.70;1.70;;;21.90;71.00;;;;;;5048825;28;44056;-70
2022/05/17 03:22:06;;;;;;;1.80;1.80;;;21.90;70.80;;;;;;5048912;28;44016;-70
2022/05/17 03:24:36;;;;;;;1.70;1.60;;;21.80;69.60;;;;;;5049150;28;43392;-70
2022/05/17 03:27:24;;;;;;;1.70;1.70;;;21.70;69.50;;;;;;5030230;28;45606;-70
2022/05/17 03:29:52;;;;;;;1.60;1.60;;;21.60;69.70;;;;;;5030076;28;45089;-70
2022/05/17 03:32:20;;;;;;;1.80;1.80;;;21.50;69.80;;;;;;5048610;28;43905;-69
2022/05/17 03:34:49;;;;;;;1.90;1.90;;;21.50;69.80;;;;;;5048615;28;44007;-70
2022/05/17 03:37:17;;;;;;;1.70;1.70;;;21.50;70.10;;;;;;5048317;28;43887;-71
2022/05/17 03:39:46;;;;;;;1.87;1.87;;;21.50;72.00;;;;;;5029073;28;45011;-69
2022/05/17 03:42:14;;;;;;;1.70;1.70;;;21.60;72.20;;;;;;5029941;28;44400;-69
2022/05/17 03:44:44;;;;;;;1.70;1.70;;;21.80;72.30;;;;;;5049080;28;43882;-69
2022/05/17 03:47:12;;;;;;;1.73;1.73;;;22.00;71.30;;;;;;5048389;28;44001;-69
2022/05/17 03:49:41;;;;;;;1.77;1.77;;;22.10;70.30;;;;;;5048291;28;43362;-69
2022/05/17 03:52:09;;;;;;;1.77;1.77;;;22.10;70.40;;;;;;5048456;28;43968;-70
2022/05/17 03:54:37;;;;;;;1.70;1.70;;;22.00;70.00;;;;;;5042312;28;43517;-70
2022/05/17 03:57:07;;;;;;;1.67;1.67;;;22.00;69.30;;;;;;5048771;28;43921;-70
2022/05/17 03:59:36;;;;;;;1.80;1.80;;;21.90;69.10;;;;;;5042205;28;43889;-70
2022/05/17 04:02:04;;;;;;;1.70;1.70;;;21.80;69.30;;;;;;5048430;28;43992;-70
2022/05/17 04:04:33;;;;;;;1.63;1.63;;;21.70;69.40;;;;;;5042748;28;43914;-70
2022/05/17 04:07:01;;;;;;;1.80;1.80;;;21.60;70.40;;;;;;5047907;28;43971;-70
2022/05/17 04:09:29;;;;;;;1.63;1.63;;;21.60;71.70;;;;;;5048262;28;44015;-71
2022/05/17 04:11:57;;;;;;;1.90;1.90;;;21.70;72.00;;;;;;5048448;28;43925;-69
2022/05/17 04:14:27;;;;;;;1.80;1.80;;;21.90;71.20;;;;;;5048689;28;43969;-70
2022/05/17 04:16:55;;;;;;;1.87;1.70;;;21.90;71.30;;;;;;5029688;28;46055;-70
2022/05/17 04:19:23;;;;;;;4.63;1.80;;;21.80;70.70;;;;;;5048251;28;43812;-70
2022/05/17 04:21:51;;;;;;;1.50;1.50;;;21.70;69.50;;;;;;5029953;28;43837;-69
2022/05/17 04:24:19;;;;;;;1.70;1.70;;;21.70;69.60;;;;;;5048443;28;43977;-70
2022/05/17 04:26:47;;;;;;;1.80;1.80;;;21.60;69.80;;;;;;5047667;28;44432;-70
2022/05/17 04:29:15;;;;;;;1.73;1.73;;;21.50;69.80;;;;;;5048123;28;43959;-70
2022/05/17 04:31:44;;;;;;;1.50;1.50;;;21.50;69.90;;;;;;5047809;28;43943;-69
2022/05/17 04:34:12;;;;;;;1.90;1.80;;;21.50;70.10;;;;;;5048389;28;44041;-69
2022/05/17 04:36:40;;;;;;;1.60;1.60;;;21.40;71.70;;;;;;5047907;28;44152;-69
2022/05/17 04:39:08;;;;;;;2.03;2.03;;;21.50;72.10;;;;;;5048149;28;43358;-70
2022/05/17 04:41:37;;;;;;;1.70;1.70;;;21.70;72.20;;;;;;5047535;28;43992;-70
2022/05/17 04:44:05;;;;;;;1.87;1.87;;;21.90;71.50;;;;;;5048354;28;43850;-70
2022/05/17 04:46:33;;;;;;;1.70;1.70;;;22.10;70.60;;;;;;5047689;28;43929;-70
2022/05/17 04:49:02;;;;;;;1.77;1.77;;;22.10;69.80;;;;;;5047496;28;44016;-70
2022/05/17 04:51:32;;;;;;;2.10;2.00;;;22.10;70.30;;;;;;5047742;28;44029;-70
2022/05/17 04:54:00;;;;;;;1.70;1.70;;;22.10;70.00;;;;;;5047951;28;43954;-69
2022/05/17 04:56:28;;;;;;;1.90;1.90;;;21.90;68.90;;;;;;5047773;28;44030;-69
2022/05/17 04:58:56;;;;;;;1.80;1.80;;;21.80;68.90;;;;;;5047538;28;43947;-69
2022/05/17 05:01:24;;;;;;;1.90;1.90;;;21.70;69.20;;;;;;5029134;28;43394;-70
2022/05/17 05:03:52;;;;;;;1.93;1.93;;;21.60;69.30;;;;;;5046907;28;43990;-70
2022/05/17 05:06:21;;;;;;;1.97;1.97;;;21.60;70.90;;;;;;5046921;28;45145;-70
2022/05/17 05:08:49;;;;;;;2.00;2.00;;;21.60;72.50;;;;;;5046961;28;44300;-69
2022/05/17 05:11:17;;;;;;;2.00;2.00;;;21.70;72.10;;;;;;5047512;28;43349;-70
2022/05/17 05:13:45;;;;;;;2.00;2.00;;;21.80;71.00;;;;;;5047821;28;43965;-70
2022/05/17 05:16:14;;;;;;;2.20;2.20;;;21.90;70.90;;;;;;5047303;28;45012;-70
2022/05/17 05:18:43;;;;;;;1.90;1.90;;;21.80;70.70;;;;;;5046814;28;43986;-70
2022/05/17 05:21:12;;;;;;;1.83;1.83;;;21.80;69.80;;;;;;5047110;28;44064;-69
2022/05/17 05:23:42;;;;;;;2.17;2.17;;;21.70;69.30;;;;;;5047797;28;43897;-71
2022/05/17 05:26:10;;;;;;;2.10;2.10;;;21.60;69.40;;;;;;5046734;28;44747;-70
2022/05/17 05:28:38;;;;;;;2.00;2.00;;;21.60;69.60;;;;;;5046686;28;43905;-70
2022/05/17 05:31:06;;;;;;;2.10;2.10;;;21.50;69.70;;;;;;5047195;28;43957;-70
2022/05/17 05:33:34;;;;;;;1.90;1.90;;;21.50;69.80;;;;;;5029194;28;44088;-69
2022/05/17 05:36:04;;;;;;;2.33;2.20;;;21.50;70.10;;;;;;5046438;28;43624;-70
2022/05/17 05:38:32;;;;;;;2.40;2.40;;;21.50;71.90;;;;;;5046938;28;43992;-69
2022/05/17 05:41:01;;;;;;;2.20;2.20;;;21.60;71.80;;;;;;5046920;28;43960;-69
2022/05/17 05:43:29;;;;;;;2.43;2.33;;;21.70;71.50;;;;;;5047084;28;44107;-70
2022/05/17 05:45:57;;;;;;;2.13;2.13;;;22.00;71.30;;;;;;5046732;28;43991;-70
2022/05/17 05:48:25;;;;;;;1.90;1.90;;;22.10;70.40;;;;;;5046709;28;43913;-70
2022/05/17 05:50:53;;;;;;;2.20;2.20;;;22.10;69.80;;;;;;5046869;28;43978;-71
2022/05/17 05:53:21;;;;;;;2.37;2.37;;;22.10;70.10;;;;;;5044974;28;44066;-69
2022/05/17 05:55:50;;;;;;;3.47;2.53;;;22.00;70.00;;;;;;5046594;28;45136;-70
2022/05/17 05:58:20;;;;;;;2.37;2.37;;;21.90;69.40;;;;;;5046761;28;44013;-70
2022/05/17 06:00:48;;;;;;;2.10;2.10;;;21.80;68.90;;;;;;5046741;28;43981;-69
2022/05/17 06:03:16;;;;;;;2.40;2.40;;;21.80;69.10;;;;;;5047097;28;43933;-71
2022/05/17 06:05:44;;;;;;;2.23;2.23;;;21.60;69.70;;;;;;5046520;28;43938;-70
2022/05/17 06:08:12;;;;;;;2.30;2.27;;;21.60;71.20;;;;;;5046433;28;44015;-70
2022/05/17 06:10:41;;;;;;;2.43;2.43;;;21.70;71.90;;;;;;5038032;28;43971;-70
2022/05/17 06:13:09;;;;;;;2.30;2.30;;;21.80;71.10;;;;;;5047210;28;43301;-70
2022/05/17 06:15:38;;;;;;;2.40;2.40;;;21.80;70.90;;;;;;5050241;28;43993;-70
2022/05/17 06:18:07;;;;;;;2.37;2.37;;;21.80;70.70;;;;;;5050060;28;43842;-70
2022/05/17 06:20:35;;;;;;;2.33;2.33;;;21.80;69.80;;;;;;5050106;28;43961;-70
2022/05/17 06:23:03;;;;;;;2.43;2.33;;;21.70;69.30;;;;;;5050523;28;43398;-71
2022/05/17 06:25:31;;;;;;;2.10;2.10;;;21.60;69.40;;;;;;5049964;28;43989;-70
2022/05/17 06:27:59;;;;;;;2.30;2.30;;;21.60;69.60;;;;;;5049522;28;43961;-70
2022/05/17 06:30:27;;;;;;;2.30;2.30;;;21.50;69.80;;;;;;5049874;28;44044;-70
2022/05/17 06:32:56;;;;;;;2.50;2.50;;;21.50;69.80;;;;;;5049967;28;43997;-70
2022/05/17 06:35:24;;;;;;;2.33;2.33;;;21.50;70.60;;;;;;5049362;28;43940;-69
2022/05/17 06:37:52;;;;;;;2.30;2.30;;;21.50;71.90;;;;;;5049580;28;43948;-71
2022/05/17 06:40:20;;;;;;;2.50;2.40;;;21.60;71.90;;;;;;5049604;28;44011;-70
2022/05/17 06:42:48;;;;;;;2.70;2.70;;;21.80;71.70;;;;;;5049883;28;43843;-69
2022/05/17 06:45:17;;;;;;;2.30;2.30;;;22.00;71.10;;;;;;5049635;28;44738;-70
2022/05/17 06:47:45;;;;;;;2.40;2.33;;;22.10;71.10;;;;;;5049484;28;43942;-70
2022/05/17 06:50:14;;;;;;;2.53;2.53;;;22.10;70.10;;;;;;5049525;28;43396;-69
2022/05/17 06:52:44;;;;;;;2.40;2.40;;;22.10;70.40;;;;;;5049700;28;44020;-69
2022/05/17 06:55:12;;;;;;;2.43;2.40;;;22.00;69.40;;;;;;5049648;28;44842;-70
2022/05/17 06:57:43;;;;;;;2.40;2.40;;;21.80;68.90;;;;;;5049407;28;43989;-70
2022/05/17 07:00:12;;;;;;;2.50;2.40;;;21.80;69.10;;;;;;5049550;28;43839;-70
2022/05/17 07:02:40;;;;;;;2.33;2.33;;;21.70;69.30;;;;;;5049801;28;43918;-69
2022/05/17 07:05:09;;;;;;;2.10;2.10;;;21.60;69.90;;;;;;5049170;28;43986;-70
2022/05/17 07:07:39;;;;;;;2.40;2.40;;;21.60;71.50;;;;;;5049611;28;43822;-70
2022/05/17 07:13:13;;;;;;;2.40;2.30;;;21.80;71.10;;;;;;5038555;28;44121;-70
2022/05/17 07:15:42;;;;;;;2.33;2.33;;;21.80;71.00;;;;;;5049297;28;43869;-69
2022/05/17 07:18:11;;;;;;;2.00;2.00;;;21.80;70.10;;;;;;5049138;28;44019;-69
2022/05/17 07:20:39;;;;;;;2.00;2.00;;;21.70;69.60;;;;;;5049372;28;44106;-69
2022/05/17 07:23:09;;;;;;;2.20;2.20;;;21.60;69.50;;;;;;5049570;28;43933;-69
2022/05/17 07:25:39;;;;;;;2.07;2.07;;;21.60;69.70;;;;;;5048346;28;43960;-70
2022/05/17 07:28:07;;;;;;;2.10;2.10;;;21.50;69.80;;;;;;5049290;28;43915;-70
2022/05/17 07:30:35;;;;;;;2.10;2.10;;;21.50;69.80;;;;;;5048891;28;43967;-71
2022/05/17 07:33:03;;;;;;;2.47;2.47;;;21.40;69.80;;;;;;5049151;28;43443;-70
2022/05/17 07:35:31;;;;;;;1.83;1.83;;;21.40;72.20;;;;;;5048875;28;45127;-70
2022/05/17 07:38:01;;;;;;;2.10;2.10;;;21.50;71.80;;;;;;5048820;28;43364;-70
2022/05/17 07:40:31;;;;;;;2.20;2.20;;;21.60;72.70;;;;;;5048755;28;43921;-71
2022/05/17 07:42:59;;;;;;;2.30;2.17;;;21.90;71.50;;;;;;5048908;28;43391;-70
2022/05/17 07:45:27;;;;;;;1.80;1.80;;;22.00;70.90;;;;;;5048661;28;43616;-70
2022/05/17 07:47:55;;;;;;;2.00;2.00;;;22.10;70.40;;;;;;5048748;28;44116;-70
2022/05/17 07:50:23;;;;;;;2.43;2.43;;;22.00;70.10;;;;;;5048651;28;43881;-70
2022/05/17 07:52:51;;;;;;;1.90;1.90;;;22.00;69.60;;;;;;5049284;28;43925;-70
2022/05/17 07:55:18;;;;;;;2.07;2.07;;;21.90;69.30;;;;;;5048450;28;43977;-70
2022/05/17 07:57:48;;;;;;;2.00;2.00;;;21.70;69.00;;;;;;5048239;28;43862;-70
2022/05/17 08:00:16;;;;;;;2.10;2.10;;;21.70;69.30;;;;;;5048378;28;44016;-69
2022/05/17 08:02:46;;;;;;;2.63;2.43;;;21.60;69.50;;;;;;5047440;28;44014;-71
2022/05/17 08:05:14;;;;;;;3.43;2.43;;;21.50;71.10;;;;;;5029724;28;45175;-69
2022/05/17 08:07:42;;;;;;;3.33;2.83;;;21.60;71.80;;;;;;5048477;28;44112;-70
2022/05/17 08:10:10;;;;;;;5.23;3.30;;;21.70;71.90;;;;;;5042033;28;43901;-70
2022/05/17 08:12:38;;;;;;;5.03;3.57;;;21.80;71.00;;;;;;5040778;28;44262;-70
2022/05/17 08:15:09;;;;;;;3.80;3.30;;;21.80;71.10;;;;;;5041553;28;45072;-70
2022/05/17 08:17:37;;;;;;;3.10;2.90;;;21.70;69.80;;;;;;5042045;28;43919;-70
2022/05/17 08:20:07;;;;;;;5.63;3.57;;;21.70;69.60;;;;;;5048098;28;43921;-70
2022/05/17 08:22:35;;;;;;;3.77;3.23;;;21.60;69.50;;;;;;5048662;28;43957;-71
2022/05/17 08:27:50;;;;;;;3.27;3.07;;;21.50;69.80;;;;;;5046423;28;44980;-69
2022/05/17 08:30:20;;;;;;;4.07;3.20;;;21.50;69.90;;;;;;5047849;28;44075;-71
2022/05/17 08:35:38;;;;;;;5.80;3.70;;;21.40;71.40;;;;;;5047307;28;45115;-70
2022/05/17 08:38:06;;;;;;;6.37;3.90;;;21.50;72.00;;;;;;5022725;28;45762;-70
2022/05/17 08:40:35;;;;;;;3.80;3.33;;;21.70;72.00;;;;;;5041003;28;43999;-70
2022/05/17 08:43:09;;;;;;;4.57;4.03;;;21.90;71.50;;;;;;5041591;28;43865;-71
2022/05/17 08:45:41;;;;;;;3.93;3.60;;;22.10;70.70;;;;;;5047843;28;45050;-69
2022/05/17 08:48:13;;;;;;;4.77;3.23;;;22.10;70.00;;;;;;5047617;28;43879;-69
2022/05/17 08:50:41;;;;;;;4.90;3.50;;;22.10;70.10;;;;;;5047953;28;43420;-70
2022/05/17 08:53:11;;;;;;;3.80;3.40;;;22.00;69.90;;;;;;5048409;28;43976;-70
2022/05/17 08:55:42;;;;;;;3.77;3.47;;;21.90;69.40;;;;;;5047493;28;43916;-69
2022/05/17 08:58:13;;;;;;;3.83;3.47;;;21.80;69.00;;;;;;5046176;28;44930;-70
2022/05/17 09:00:43;;;;;;;3.83;3.30;;;21.70;69.20;;;;;;5048008;28;43928;-70
2022/05/17 09:03:19;;;;;;;3.33;3.13;;;21.60;69.30;;;;;;5048128;28;43379;-70
2022/05/17 09:05:49;;;;;;;3.60;3.30;;;21.50;71.40;;;;;;5028968;28;46417;-70
2022/05/17 09:08:22;;;;;;;3.70;3.50;;;21.60;71.70;;;;;;5047342;28;44424;-70
2022/05/17 09:10:51;;;;;;;3.57;3.10;;;21.70;71.50;;;;;;5047426;28;43880;-70
2022/05/17 09:13:22;;;;;;;3.47;3.20;;;21.80;71.10;;;;;;5047936;28;43368;-70
2022/05/17 09:15:52;;;;;;;4.47;3.40;;;21.80;70.80;;;;;;5028876;28;46104;-70
2022/05/17 09:18:20;;;;;;;3.27;3.07;;;21.70;70.00;;;;;;5046860;28;44228;-71
2022/05/17 09:20:48;;;;;;;3.83;3.10;;;21.70;69.60;;;;;;5047148;28;43960;-70
2022/05/17 09:23:16;;;;;;;3.57;3.27;;;21.60;69.70;;;;;;5047559;28;43496;-70
2022/05/17 09:25:47;;;;;;;3.17;2.97;;;21.50;69.80;;;;;;5046754;28;43944;-69
2022/05/17 09:28:18;;;;;;;3.33;3.03;;;21.50;70.00;;;;;;5040545;28;44237;-70
2022/05/17 09:30:46;;;;;;;3.27;3.07;;;21.40;70.00;;;;;;5028965;28;43903;-71
2022/05/17 09:33:19;;;;;;;3.33;3.13;;;21.40;70.30;;;;;;5047189;28;43891;-69
2022/05/17 09:35:56;;;;;;;3.73;3.53;;;21.40;72.00;;;;;;5046699;28;43973;-71
2022/05/17 09:38:25;;;;;;;4.07;3.47;;;21.50;72.20;;;;;;5046867;28;44058;-70
2022/05/17 09:40:59;;;;;;;3.83;3.40;;;21.70;71.90;;;;;;5029029;28;43470;-70
2022/05/17 09:43:40;;;;;;;3.00;2.80;;;21.90;71.30;;;;;;5047039;28;43990;-69
2022/05/17 09:46:10;;;;;;;3.47;3.17;;;22.00;70.60;;;;;;5047002;28;43973;-71
2022/05/17 09:54:29;;;;;;;3.20;2.90;;;21.90;69.60;;;;;;4990339;28;44173;-70
2022/05/17 09:57:16;;;;;;;2.67;2.57;;;21.70;69.30;;;;;;5046538;28;43933;-69
2022/05/17 09:59:44;;;;;;;2.90;2.80;;;21.60;69.50;;;;;;5046711;28;44021;-70
2022/05/17 10:02:32;;;;;;;2.97;2.77;;;21.50;69.80;;;;;;5046696;28;43918;-71
2022/05/17 10:05:02;;;;;;;3.20;3.00;;;21.50;71.70;;;;;;5046611;28;43977;-70
2022/05/17 10:07:31;;;;;;;2.90;2.80;;;21.50;72.10;;;;;;5046785;28;44005;-70
2022/05/17 10:09:59;;;;;;;2.83;2.73;;;21.70;71.60;;;;;;5046546;28;44126;-70
2022/05/17 10:12:31;;;;;;;2.97;2.80;;;21.70;71.20;;;;;;5028476;28;44024;-70
2022/05/17 10:15:02;;;;;;;2.80;2.70;;;21.70;70.60;;;;;;5046860;28;43305;-70
2022/05/17 10:17:32;;;;;;;2.50;2.40;;;21.70;70.00;;;;;;5046283;28;44935;-70
2022/05/17 10:20:03;;;;;;;2.93;2.77;;;21.60;69.70;;;;;;5039950;28;43938;-70
2022/05/17 10:22:37;;;;;;;2.67;2.53;;;21.50;69.80;;;;;;5022452;28;43943;-70
2022/05/17 10:25:08;;;;;;;2.70;2.60;;;21.50;70.00;;;;;;5046668;28;43931;-71
2022/05/17 10:27:37;;;;;;;2.93;2.77;;;21.40;70.10;;;;;;5046063;28;43958;-70
2022/05/17 10:30:07;;;;;;;3.13;2.87;;;21.40;70.30;;;;;;5046223;28;43999;-70
2022/05/17 10:32:40;;;;;;;2.43;2.33;;;21.30;71.10;;;;;;5046657;28;44270;-70
2022/05/17 10:35:15;;;;;;;3.00;2.80;;;21.30;72.10;;;;;;5046460;28;43929;-71
2022/05/17 10:37:47;;;;;;;2.50;2.40;;;21.40;72.10;;;;;;5046105;28;44787;-70
2022/05/17 10:40:17;;;;;;;2.70;2.60;;;21.60;71.90;;;;;;5046079;28;43924;-70
2022/05/17 10:42:45;;;;;;;2.40;2.30;;;21.80;71.60;;;;;;5027679;28;43356;-71
2022/05/17 10:45:20;;;;;;;2.47;2.37;;;22.00;70.60;;;;;;5046656;28;43996;-70
2022/05/17 10:47:50;;;;;;;2.57;2.47;;;22.00;70.50;;;;;;5046003;28;43944;-69
2022/05/17 10:50:30;;;;;;;2.43;2.33;;;21.90;70.10;;;;;;5046118;28;43481;-70
2022/05/17 10:53:07;;;;;;;2.63;2.53;;;21.80;69.60;;;;;;5046215;28;43351;-71
2022/05/17 10:55:41;;;;;;;2.80;2.60;;;21.70;69.40;;;;;;5046231;28;43967;-72
2022/05/17 10:58:13;;;;;;;2.40;2.30;;;21.60;69.60;;;;;;5046203;28;44160;-70
2022/05/17 11:00:43;;;;;;;2.67;2.57;;;21.50;69.80;;;;;;5047170;28;43985;-71
2022/05/17 11:03:37;;;;;;;2.67;2.53;;;21.50;71.30;;;;;;5049623;28;43372;-69
2022/05/17 11:06:17;;;;;;;2.67;2.57;;;21.50;72.20;;;;;;5049066;28;44009;-70
2022/05/17 11:08:52;;;;;;;3.07;2.90;;;21.60;71.90;;;;;;5049196;28;44871;-70
2022/05/17 11:11:26;;;;;;;2.23;2.13;;;21.80;71.50;;;;;;5048993;28;43949;-70
2022/05/17 11:13:58;;;;;;;2.43;2.33;;;21.70;70.70;;;;;;5049313;28;43846;-71
2022/05/17 11:16:27;;;;;;;2.50;2.40;;;21.70;70.10;;;;;;5031210;28;43956;-70
2022/05/17 11:18:56;;;;;;;2.50;2.40;;;21.60;69.70;;;;;;5049211;28;44873;-70
2022/05/17 11:21:27;;;;;;;2.30;2.20;;;21.50;69.80;;;;;;5049680;28;44115;-70
2022/05/17 11:23:56;;;;;;;2.20;2.20;;;21.50;69.90;;;;;;5049253;28;43933;-70
2022/05/17 11:26:47;;;;;;;2.30;2.20;;;21.40;70.10;;;;;;5049540;28;44139;-70
2022/05/17 11:29:44;;;;;;;2.40;2.30;;;21.40;71.00;;;;;;5025767;28;47396;-70
2022/05/17 11:32:24;;;;;;;2.53;2.43;;;21.30;70.40;;;;;;5048784;28;44110;-70
2022/05/17 11:34:54;;;;;;;2.80;2.60;;;21.30;72.00;;;;;;5031471;28;43986;-70
2022/05/17 11:37:49;;;;;;;2.60;2.40;;;21.50;72.50;;;;;;5048934;28;43948;-69
2022/05/17 11:40:51;;;;;;;2.33;2.23;;;21.60;71.90;;;;;;5048748;28;43943;-70
2022/05/17 11:43:43;;;;;;;2.33;2.20;;;21.90;71.40;;;;;;5046747;28;44801;-70
2022/05/17 11:46:48;;;;;;;2.20;2.10;;;22.00;70.70;;;;;;5049909;28;43914;-69
2022/05/17 11:49:46;;;;;;;2.37;2.23;;;22.00;70.30;;;;;;5049039;28;43923;-71
2022/05/17 11:52:25;;;;;;;2.73;2.27;;;21.90;70.30;;;;;;5046492;28;46329;-70
2022/05/17 11:54:55;;;;;;;2.10;2.10;;;21.70;69.30;;;;;;5048490;28;43949;-70
2022/05/17 11:58:00;;;;;;;2.00;2.00;;;21.60;69.50;;;;;;5048350;28;43448;-70
2022/05/17 12:00:44;;;;;;;2.47;2.30;;;21.60;69.90;;;;;;5044289;28;43401;-70
2022/05/17 12:03:54;;;;;;;2.50;2.40;;;21.50;70.50;;;;;;5048429;28;43920;-70
2022/05/17 12:07:04;;;;;;;1.90;1.90;;;21.50;72.00;;;;;;5044702;28;43999;-71
2022/05/17 12:09:34;;;;;;;2.20;2.20;;;21.70;72.00;;;;;;5048467;28;43979;-72
2022/05/17 12:12:29;;;;;;;2.40;2.30;;;21.70;71.20;;;;;;5048041;28;43975;-71
2022/05/17 12:15:14;;;;;;;2.07;2.07;;;21.70;70.30;;;;;;5048127;28;43881;-70
2022/05/17 12:17:46;;;;;;;1.80;1.80;;;21.60;69.80;;;;;;5043057;28;44111;-70
2022/05/17 12:20:16;;;;;;;2.37;2.17;;;21.50;69.80;;;;;;5048303;28;43943;-70
2022/05/17 12:22:48;;;;;;;1.80;1.80;;;21.50;70.10;;;;;;5048587;28;43945;-70
2022/05/17 12:25:21;;;;;;;2.10;2.00;;;21.40;70.10;;;;;;5046151;28;45715;-70
2022/05/17 12:27:50;;;;;;;2.27;2.17;;;21.40;70.30;;;;;;5047944;28;43992;-70
2022/05/17 12:33:06;;;;;;;2.10;2.00;;;21.30;71.40;;;;;;5041241;28;43937;-70
2022/05/17 12:35:34;;;;;;;2.00;2.00;;;21.40;72.40;;;;;;5047556;28;43918;-69
2022/05/17 12:38:02;;;;;;;2.00;2.00;;;21.50;72.10;;;;;;5041286;28;43994;-70
2022/05/17 12:43:27;;;;;;;1.80;1.80;;;21.90;71.10;;;;;;5048098;28;44012;-70
2022/05/17 12:45:56;;;;;;;1.90;1.90;;;22.00;70.50;;;;;;5047724;28;44052;-70
2022/05/17 12:48:30;;;;;;;1.90;1.90;;;22.00;70.30;;;;;;5047346;28;43894;-70
2022/05/17 12:50:59;;;;;;;2.30;2.20;;;21.90;69.50;;;;;;5047811;28;44355;-70
2022/05/17 12:53:29;;;;;;;2.00;2.00;;;21.80;69.40;;;;;;5047958;28;43438;-70
2022/05/17 12:56:00;;;;;;;2.20;2.20;;;21.70;69.50;;;;;;5047636;28;43884;-70
2022/05/17 12:58:35;;;;;;;1.90;1.90;;;21.60;69.80;;;;;;5047684;28;43340;-70
2022/05/17 13:01:06;;;;;;;1.80;1.80;;;21.50;69.80;;;;;;5034242;28;43340;-70
2022/05/17 13:03:34;;;;;;;2.03;1.93;;;21.50;71.70;;;;;;5041878;28;43301;-70
2022/05/17 13:06:04;;;;;;;2.00;2.00;;;21.50;72.00;;;;;;5029015;28;45751;-69
2022/05/17 13:08:35;;;;;;;1.90;1.90;;;21.70;72.20;;;;;;5047516;28;43926;-70
2022/05/17 13:11:06;;;;;;;2.13;2.13;;;21.70;71.30;;;;;;5029273;28;43417;-69
2022/05/17 13:13:36;;;;;;;1.90;1.90;;;21.80;71.10;;;;;;5047909;28;43919;-69
2022/05/17 13:16:06;;;;;;;1.80;1.80;;;21.70;70.10;;;;;;5047270;28;43941;-70
2022/05/17 13:18:39;;;;;;;1.87;1.87;;;21.60;69.80;;;;;;5047106;28;43898;-69
2022/05/17 13:21:11;;;;;;;1.93;1.93;;;21.60;69.80;;;;;;5047625;28;43337;-71
2022/05/17 13:23:39;;;;;;;2.17;2.07;;;21.50;70.10;;;;;;5046961;28;43965;-70
2022/05/17 13:26:09;;;;;;;1.60;1.60;;;21.50;70.30;;;;;;5046956;28;44041;-70
2022/05/17 13:28:39;;;;;;;1.77;1.77;;;21.40;70.30;;;;;;5047133;28;44356;-70